createdAt,value
2023-02-11T00:04:50.062Z,-0.11
2023-02-11T00:09:54.083Z,0.10
2023-02-11T00:15:00.627Z,0.20
2023-02-11T00:20:08.308Z,0.26
2023-02-11T00:25:14.001Z,0.30
2023-02-11T00:30:24.769Z,0.27
2023-02-11T00:35:30.554Z,0.28
2023-02-11T00:40:35.225Z,0.31
2023-02-11T00:45:42.356Z,0.34
2023-02-11T00:50:48.508Z,0.37
2023-02-11T00:55:52.937Z,0.34
2023-02-11T01:00:57.852Z,0.32
2023-02-11T01:06:03.792Z,0.28
2023-02-11T01:11:15.084Z,0.26
2023-02-11T01:16:23.987Z,0.22
2023-02-11T01:22:14.256Z,0.12
2023-02-11T01:27:22.110Z,0.02
2023-02-11T01:32:57.704Z,-0.03
2023-02-11T01:38:24.797Z,-0.11
2023-02-11T01:43:34.816Z,-0.18
2023-02-11T01:48:45.793Z,-0.20
2023-02-11T01:54:10.616Z,-0.20
2023-02-11T01:59:24.077Z,-0.17
2023-02-11T02:04:36.983Z,-0.15
2023-02-11T02:09:50.059Z,-0.08
2023-02-11T02:15:14.484Z,-0.03
2023-02-11T02:21:08.523Z,0.09
2023-02-11T02:26:47.868Z,0.24
2023-02-11T02:32:50.872Z,0.36
2023-02-11T02:38:36.876Z,0.54
2023-02-11T02:43:52.418Z,0.64
2023-02-11T02:49:03.974Z,0.82
2023-02-11T02:54:59.682Z,0.97
2023-02-11T03:01:18.568Z,1.06
2023-02-11T03:07:35.234Z,1.09
2023-02-11T03:13:04.892Z,1.15
2023-02-11T03:18:12.371Z,1.14
2023-02-11T03:23:32.023Z,1.13
2023-02-11T03:28:50.376Z,1.17
2023-02-11T03:34:33.112Z,1.21
2023-02-11T03:40:02.747Z,1.23
2023-02-11T03:45:21.530Z,1.27
2023-02-11T03:50:28.679Z,1.32
2023-02-11T03:55:40.914Z,1.38
2023-02-11T04:00:45.776Z,1.42
2023-02-11T04:05:59.693Z,1.42
2023-02-11T04:11:47.864Z,1.37
2023-02-11T04:16:54.253Z,1.33
2023-02-11T04:22:06.344Z,1.30
2023-02-11T04:27:34.147Z,1.27
2023-02-11T04:32:51.379Z,1.23
2023-02-11T04:37:59.140Z,1.21
2023-02-11T04:43:05.214Z,1.25
2023-02-11T04:48:19.292Z,1.27
2023-02-11T04:53:26.632Z,1.27
2023-02-11T04:58:33.161Z,1.26
2023-02-11T05:03:55.294Z,1.30
2023-02-11T05:09:20.248Z,1.38
2023-02-11T05:14:28.126Z,1.40
2023-02-11T05:19:46.904Z,1.42
2023-02-11T05:24:51.432Z,1.37
2023-02-11T05:29:59.655Z,1.39
2023-02-11T05:35:39.636Z,1.45
2023-02-11T05:40:44.816Z,1.50
2023-02-11T05:45:50.642Z,1.52
2023-02-11T05:50:58.269Z,1.54
2023-02-11T05:56:33.087Z,1.56
2023-02-11T06:03:01.467Z,1.58
2023-02-11T06:08:43.981Z,1.58
2023-02-11T06:14:17.741Z,1.60
2023-02-11T06:19:24.598Z,1.68
2023-02-11T06:24:51.306Z,1.73
2023-02-11T06:30:01.701Z,1.78
2023-02-11T06:35:12.137Z,1.83
2023-02-11T06:40:17.274Z,1.87
2023-02-11T06:45:25.464Z,1.89
2023-02-11T06:51:22.304Z,1.92
2023-02-11T06:57:49.290Z,1.98
2023-02-11T07:03:39.810Z,2.02
2023-02-11T07:09:16.807Z,2.08
2023-02-11T07:14:41.825Z,2.14
2023-02-11T07:20:08.028Z,2.19
2023-02-11T07:25:45.834Z,2.23
2023-02-11T07:30:50.752Z,2.28
2023-02-11T07:36:10.948Z,2.37
2023-02-11T07:41:37.650Z,2.45
2023-02-11T07:47:27.315Z,2.55
2023-02-11T07:53:41.454Z,2.65
2023-02-11T08:00:03.919Z,2.75
2023-02-11T08:06:33.221Z,2.85
2023-02-11T08:12:58.328Z,2.95
2023-02-11T08:19:01.914Z,3.11
2023-02-11T08:24:09.410Z,3.26
2023-02-11T08:29:27.145Z,3.42
2023-02-11T08:34:31.438Z,3.59
2023-02-11T08:39:40.521Z,3.75
2023-02-11T08:44:56.269Z,3.90
2023-02-11T08:51:05.012Z,4.09
2023-02-11T08:56:52.717Z,4.19
2023-02-11T09:02:05.232Z,4.18
2023-02-11T09:07:46.477Z,4.24
2023-02-11T09:13:33.690Z,4.40
2023-02-11T09:19:10.771Z,4.58
2023-02-11T09:24:43.891Z,4.75
2023-02-11T09:30:30.547Z,4.90
2023-02-11T09:36:27.156Z,4.94
2023-02-11T09:42:34.225Z,4.98
2023-02-11T09:48:00.152Z,5.04
2023-02-11T09:53:49.194Z,5.08
2023-02-11T09:59:21.018Z,5.19
2023-02-11T10:05:34.625Z,5.15
2023-02-11T10:11:59.703Z,5.08
2023-02-11T10:18:18.807Z,5.12
2023-02-11T10:23:44.855Z,5.16
2023-02-11T10:28:56.681Z,5.27
2023-02-11T10:34:29.683Z,5.42
2023-02-11T10:40:20.984Z,5.53
2023-02-11T10:48:18.963Z,5.56
2023-02-11T11:00:19.499Z,5.56
2023-02-11T11:06:17.485Z,5.50
2023-02-11T11:11:52.360Z,5.46
2023-02-11T11:16:57.647Z,5.44
2023-02-11T11:22:59.484Z,5.48
2023-02-11T11:28:29.966Z,5.56
2023-02-11T11:33:38.624Z,5.78
2023-02-11T11:39:16.809Z,5.98
2023-02-11T11:45:18.798Z,6.11
2023-02-11T11:51:41.018Z,6.09
2023-02-11T11:57:36.068Z,5.98
2023-02-11T12:04:08.237Z,5.94
2023-02-11T12:10:22.978Z,5.92
2023-02-11T12:16:27.348Z,6.02
2023-02-11T12:22:40.856Z,6.03
2023-02-11T12:27:54.645Z,6.03
2023-02-11T12:34:04.656Z,6.04
2023-02-11T12:39:54.990Z,5.99
2023-02-11T12:47:33.521Z,5.92
2023-02-11T12:53:31.381Z,5.86
2023-02-11T12:58:45.415Z,5.83
2023-02-11T13:04:19.221Z,5.82
2023-02-11T13:15:55.717Z,5.81
2023-02-11T13:28:19.950Z,5.79
2023-02-11T13:34:21.664Z,5.78
2023-02-11T13:46:37.111Z,5.74
2023-02-11T13:52:45.043Z,5.75
2023-02-11T13:59:15.357Z,5.73
2023-02-11T14:05:45.098Z,5.70
2023-02-11T14:12:28.231Z,5.68
2023-02-11T14:19:02.171Z,5.66
2023-02-11T14:25:31.342Z,5.58
2023-02-11T14:32:15.295Z,5.51
2023-02-11T14:39:00.273Z,5.45
2023-02-11T14:45:16.744Z,5.39
2023-02-11T14:51:46.527Z,5.27
2023-02-11T14:58:17.322Z,5.11
2023-02-11T15:04:46.715Z,4.98
2023-02-11T15:11:06.345Z,4.85
2023-02-11T15:17:35.217Z,4.76
2023-02-11T15:24:02.675Z,4.68
2023-02-11T15:30:32.373Z,4.64
2023-02-11T15:36:58.651Z,4.62
2023-02-11T15:43:27.544Z,4.62
2023-02-11T15:49:55.535Z,4.63
2023-02-11T15:56:07.879Z,4.63
2023-02-11T16:02:38.487Z,4.61
2023-02-11T16:09:04.506Z,4.60
2023-02-11T16:15:45.125Z,4.60
2023-02-11T16:22:15.261Z,4.61
2023-02-11T16:28:44.081Z,4.63
2023-02-11T16:35:21.694Z,4.62
2023-02-11T16:41:31.553Z,4.66
2023-02-11T16:48:01.747Z,4.72
2023-02-11T16:54:27.484Z,4.76
2023-02-11T17:00:57.322Z,4.80
2023-02-11T17:07:18.130Z,4.81
2023-02-11T17:13:41.111Z,4.82
2023-02-11T17:20:07.435Z,4.81
2023-02-11T17:26:37.362Z,4.80
2023-02-11T17:33:04.913Z,4.78
2023-02-11T17:39:27.318Z,4.77
2023-02-11T17:52:38.344Z,4.75
2023-02-11T17:59:05.566Z,4.74
2023-02-11T18:05:33.273Z,4.74
2023-02-11T18:12:03.421Z,4.72
2023-02-11T18:18:13.670Z,4.74
2023-02-11T18:30:48.477Z,4.77
2023-02-11T18:37:19.980Z,4.79
2023-02-11T18:43:39.979Z,4.81
2023-02-11T18:49:37.804Z,4.83
2023-02-11T18:56:12.167Z,4.85
2023-02-11T19:02:43.066Z,4.87
2023-02-11T19:09:16.120Z,4.90
2023-02-11T19:15:46.687Z,4.89
2023-02-11T19:22:13.857Z,4.91
2023-02-11T19:28:44.718Z,4.93
2023-02-11T19:34:21.817Z,4.90
2023-02-11T19:40:50.680Z,4.91
2023-02-11T19:47:21.849Z,4.90
2023-02-11T19:53:54.519Z,4.88
2023-02-11T20:00:17.118Z,4.90
2023-02-11T20:06:49.088Z,4.89
2023-02-11T20:20:13.404Z,4.91
2023-02-11T20:26:17.550Z,4.93
2023-02-11T20:32:45.812Z,4.93
2023-02-11T20:39:14.925Z,4.95
2023-02-11T20:45:44.814Z,4.97
2023-02-11T20:52:12.619Z,4.98
2023-02-11T20:58:51.438Z,4.99
2023-02-11T21:05:23.564Z,5.03
2023-02-11T21:11:52.263Z,5.05
2023-02-11T21:18:19.492Z,5.07
2023-02-11T21:24:39.911Z,5.08
2023-02-11T21:31:08.374Z,5.08
2023-02-11T21:37:39.625Z,5.09
2023-02-11T21:44:06.114Z,5.08
2023-02-11T21:50:39.004Z,5.07
2023-02-11T21:57:04.260Z,5.08
2023-02-11T22:03:28.662Z,5.10
2023-02-11T22:10:29.441Z,5.12
2023-02-11T22:16:58.703Z,5.10
2023-02-11T22:23:17.547Z,5.10
2023-02-11T22:29:44.490Z,5.07
2023-02-11T22:35:57.473Z,5.06
2023-02-11T22:42:24.052Z,5.07
2023-02-11T22:48:48.164Z,5.13
2023-02-11T22:55:13.332Z,5.14
2023-02-11T23:01:13.953Z,5.15
2023-02-11T23:07:31.840Z,5.15
2023-02-11T23:13:40.274Z,5.14
2023-02-11T23:20:04.997Z,5.13
2023-02-11T23:26:15.076Z,5.15
2023-02-11T23:32:40.375Z,5.13
2023-02-11T23:39:08.901Z,5.10
2023-02-11T23:45:28.568Z,5.07
2023-02-11T23:51:54.751Z,5.04
2023-02-11T23:58:00.449Z,5.02
